Captain Evangelos Nm — 9HWW8 — position and weather

sailwx.info

Track history (hours):
 
Tides and Currents Weather Stations Pressure Air Temp Water Temp Dewpoint Dewpoint Depression Visibility Wind Speed Wind Dir Waves Ship Positions

Captain Evangelos Nm

Last reported at 2015-Aug-18 00:15 UTC. Time now 2015-Aug-28 00:20 UTC.
Position N 32°04' E 031°28'.
Warning: this ship's position is 10 days out of date.

Length 223 m; draft 11.5 m.

Type: Cargo ship. MMSI: 256545000.

Date/timePositionNaut miles runAvg speedWind from/ knotsBaromVisibWave heightAir tempDewpointWater temp
2015-Aug-18 00:15N 32°04' E 031°28'2212.8
2015-Aug-17 22:31N 32°18' E 031°08'5312.7
2015-Aug-17 18:21N 32°51' E 030°19'1313.0
2015-Aug-17 17:21N 32°60' E 030°07'2412.7
2015-Aug-17 15:26N 33°15' E 029°44'1112.6
2015-Aug-17 14:33N 33°22' E 029°34'6412.7
2015-Aug-17 09:33N 34°02' E 028°35'1512.9
2015-Aug-17 08:25N 34°11' E 028°20'1113.2
2015-Aug-17 07:33N 34°18' E 028°09'1313.2
2015-Aug-17 06:33N 34°27' E 027°58'1313.2
2015-Aug-17 05:33N 34°36' E 027°46'1313.1
2015-Aug-17 04:33N 34°43' E 027°32'1312.9
2015-Aug-17 03:33N 34°49' E 027°19'1312.8
2015-Aug-17 02:32N 34°58' E 027°07'1313.1
2015-Aug-17 01:33N 35°07' E 026°56'1313.2
2015-Aug-17 00:33N 35°15' E 026°43'1313.3
2015-Aug-16 23:33N 35°24' E 026°31'1413.6
2015-Aug-16 22:33N 35°32' E 026°17'3013.6
2015-Aug-16 20:22N 35°48' E 025°46'1113.2
2015-Aug-16 19:33N 35°53' E 025°35'1313.2
2015-Aug-16 18:33N 36°00' E 025°21'1313.2
2015-Aug-16 17:33N 36°08' E 025°08'1313.2
2015-Aug-16 16:33N 36°15' E 024°54'1313.1
2015-Aug-16 15:33N 36°22' E 024°40'1312.8
2015-Aug-16 14:33N 36°28' E 024°27'1312.8
2015-Aug-16 13:33N 36°36' E 024°14'1212.5
2015-Aug-16 12:33N 36°47' E 024°07'1312.8
2015-Aug-16 11:33N 36°59' E 024°01'1212.2
2015-Aug-16 10:33N 37°11' E 023°55'1312.6
2015-Aug-16 09:33N 37°23' E 023°51'1312.7
2015-Aug-16 08:33N 37°35' E 023°46'1212.4
2015-Aug-16 07:33N 37°46' E 023°39'9 7.2
2015-Aug-16 06:21N 37°52' E 023°30'0 0.1
2015-Aug-16 05:31N 37°52' E 023°31'0 0.0
2015-Aug-16 04:31N 37°52' E 023°31'0 0.1
2015-Aug-16 03:31N 37°52' E 023°30'0 0.0
2015-Aug-16 02:31N 37°52' E 023°30'0 0.1
2015-Aug-16 01:31N 37°52' E 023°30'0 0.1
2015-Aug-16 00:31N 37°52' E 023°31'0 0.1
2015-Aug-15 23:31N 37°52' E 023°31'0 0.0
2015-Aug-15 22:31N 37°52' E 023°30'0 0.0
2015-Aug-15 21:31N 37°52' E 023°31'0 0.0
2015-Aug-15 20:31N 37°52' E 023°31'0 0.0
2015-Aug-15 19:31N 37°52' E 023°30'0 0.0
2015-Aug-15 18:31N 37°52' E 023°31'1 1.3
2015-Aug-15 17:33N 37°52' E 023°32'9 8.7
2015-Aug-15 16:33N 37°48' E 023°41'1212.2
2015-Aug-15 15:33N 37°39' E 023°52'2711.3
2015-Aug-15 13:07N 37°48' E 024°25'812.9
2015-Aug-15 12:29N 37°54' E 024°33'  
2015-Aug-12 06:32N 46°17' E 031°04'0 0.0
2015-Aug-12 04:33N 46°17' E 031°04'0 0.0
2015-Aug-12 03:16N 46°17' E 031°04'0 0.0
2015-Aug-12 02:33N 46°17' E 031°04'0 0.0
2015-Aug-12 01:33N 46°18' E 031°04'0 0.0
2015-Aug-12 00:22N 46°18' E 031°04'0 0.0
2015-Aug-11 23:16N 46°18' E 031°04'0 0.3
2015-Aug-11 22:33N 46°18' E 031°04'17 1.0
2015-Aug-11 05:30N 46°20' E 030°39'0 0.0
2015-Aug-11 04:30N 46°20' E 030°39'0 0.0
2015-Aug-11 03:33N 46°20' E 030°39'0 0.0
2015-Aug-11 02:24N 46°20' E 030°39'  
2015-Aug-08 03:30N 46°13' E 031°02'1112.0
2015-Aug-08 02:33N 46°02' E 031°06'  
Track history (hours):
 
Tides and Currents Weather Stations Pressure Air Temp Water Temp Dewpoint Dewpoint Depression Visibility Wind Speed Wind Dir Waves Ship Positions

Captain Evangelos Nm

Last reported at 2015-Aug-18 00:15 UTC. Time now 2015-Aug-28 00:20 UTC.
Position N 32°04' E 031°28'.
Warning: this ship's position is 10 days out of date.

Length 223 m; draft 11.5 m.

Type: Cargo ship. MMSI: 256545000.

Date/timePositionNaut miles runAvg speedWind from/ knotsBaromVisibWave heightAir tempDewpointWater temp
2015-Aug-18 00:15N 32°04' E 031°28'2212.8
2015-Aug-17 22:31N 32°18' E 031°08'5312.7
2015-Aug-17 18:21N 32°51' E 030°19'1313.0
2015-Aug-17 17:21N 32°60' E 030°07'2412.7
2015-Aug-17 15:26N 33°15' E 029°44'1112.6
2015-Aug-17 14:33N 33°22' E 029°34'6412.7
2015-Aug-17 09:33N 34°02' E 028°35'1512.9
2015-Aug-17 08:25N 34°11' E 028°20'1113.2
2015-Aug-17 07:33N 34°18' E 028°09'1313.2
2015-Aug-17 06:33N 34°27' E 027°58'1313.2
2015-Aug-17 05:33N 34°36' E 027°46'1313.1
2015-Aug-17 04:33N 34°43' E 027°32'1312.9
2015-Aug-17 03:33N 34°49' E 027°19'1312.8
2015-Aug-17 02:32N 34°58' E 027°07'1313.1
2015-Aug-17 01:33N 35°07' E 026°56'1313.2
2015-Aug-17 00:33N 35°15' E 026°43'1313.3
2015-Aug-16 23:33N 35°24' E 026°31'1413.6
2015-Aug-16 22:33N 35°32' E 026°17'3013.6
2015-Aug-16 20:22N 35°48' E 025°46'1113.2
2015-Aug-16 19:33N 35°53' E 025°35'1313.2
2015-Aug-16 18:33N 36°00' E 025°21'1313.2
2015-Aug-16 17:33N 36°08' E 025°08'1313.2
2015-Aug-16 16:33N 36°15' E 024°54'1313.1
2015-Aug-16 15:33N 36°22' E 024°40'1312.8
2015-Aug-16 14:33N 36°28' E 024°27'1312.8
2015-Aug-16 13:33N 36°36' E 024°14'1212.5
2015-Aug-16 12:33N 36°47' E 024°07'1312.8
2015-Aug-16 11:33N 36°59' E 024°01'1212.2
2015-Aug-16 10:33N 37°11' E 023°55'1312.6
2015-Aug-16 09:33N 37°23' E 023°51'1312.7
2015-Aug-16 08:33N 37°35' E 023°46'1212.4
2015-Aug-16 07:33N 37°46' E 023°39'9 7.2
2015-Aug-16 06:21N 37°52' E 023°30'0 0.1
2015-Aug-16 05:31N 37°52' E 023°31'0 0.0
2015-Aug-16 04:31N 37°52' E 023°31'0 0.1
2015-Aug-16 03:31N 37°52' E 023°30'0 0.0
2015-Aug-16 02:31N 37°52' E 023°30'0 0.1
2015-Aug-16 01:31N 37°52' E 023°30'0 0.1
2015-Aug-16 00:31N 37°52' E 023°31'0 0.1
2015-Aug-15 23:31N 37°52' E 023°31'0 0.0
2015-Aug-15 22:31N 37°52' E 023°30'0 0.0
2015-Aug-15 21:31N 37°52' E 023°31'0 0.0
2015-Aug-15 20:31N 37°52' E 023°31'0 0.0
2015-Aug-15 19:31N 37°52' E 023°30'0 0.0
2015-Aug-15 18:31N 37°52' E 023°31'1 1.3
2015-Aug-15 17:33N 37°52' E 023°32'9 8.7
2015-Aug-15 16:33N 37°48' E 023°41'1212.2
2015-Aug-15 15:33N 37°39' E 023°52'2711.3
2015-Aug-15 13:07N 37°48' E 024°25'812.9
2015-Aug-15 12:29N 37°54' E 024°33'  
2015-Aug-12 06:32N 46°17' E 031°04'0 0.0
2015-Aug-12 04:33N 46°17' E 031°04'0 0.0
2015-Aug-12 03:16N 46°17' E 031°04'0 0.0
2015-Aug-12 02:33N 46°17' E 031°04'0 0.0
2015-Aug-12 01:33N 46°18' E 031°04'0 0.0
2015-Aug-12 00:22N 46°18' E 031°04'0 0.0
2015-Aug-11 23:16N 46°18' E 031°04'0 0.3
2015-Aug-11 22:33N 46°18' E 031°04'17 1.0
2015-Aug-11 05:30N 46°20' E 030°39'0 0.0
2015-Aug-11 04:30N 46°20' E 030°39'0 0.0
2015-Aug-11 03:33N 46°20' E 030°39'0 0.0
2015-Aug-11 02:24N 46°20' E 030°39'  
2015-Aug-08 03:30N 46°13' E 031°02'1112.0
2015-Aug-08 02:33N 46°02' E 031°06'  

Dump ship's entire track history